KOSH/OSH METAR and TAF weather

Enter ICAO airport designator
Station Type Date Time Source
KOSH METAR 2023/03/21 16:53 UTC NOAA

KOSH 211653Z 06010KT 10SM FEW110 02/M03 A3016 RMK AO2 SLP227 T00221028


Station Type Date Time Source
KOSH Decoded METAR 2023/03/21 16:53 UTC NOAA

WITTMAN REGIONAL AIRPORT, WI, United States (KOSH) 43-58N 88-33W 248M
Mar 21, 2023 - 12:53 PM EDT / 2023.03.21 1653 UTC
Wind: from the ENE (060 degrees) at 12 MPH (10 KT):0
Visibility: 10 mile(s):0
Sky conditions: mostly clear
Temperature: 36.0 F (2.2 C)
Dew Point: 27.0 F (-2.8 C)
Relative Humidity: 69%
Pressure (altimeter): 30.16 in. Hg (1021 hPa)
ob: KOSH 211653Z 06010KT 10SM FEW110 02/M03 A3016 RMK AO2 SLP227 T00221028
cycle: 17

Station Type Date Time Source
KOSH TAF 2023/02/24 12:36 UTC NOAA

TAF KOSH 241135Z 2412/2512 VRB04KT P6SM SKC
FM242200 00000KT P6SM BKN090
FM250400 VRB04KT 4SM -SHSN BR BKN040
FM250500 VRB04KT 3SM -SHSN BR OVC030
FM251100 VRB04KT P6SM OVC035

Example: see airport list